createdAt,value
2018-04-06T00:00:44.318Z,99401.85
2018-04-06T00:03:11.725Z,99402.97
2018-04-06T00:05:39.111Z,99390.05
2018-04-06T00:08:06.522Z,99389.80
2018-04-06T00:10:33.895Z,99387.69
2018-04-06T00:13:01.335Z,99397.68
2018-04-06T00:15:28.769Z,99393.48
2018-04-06T00:17:56.163Z,99395.09
2018-04-06T00:20:23.556Z,99398.04
2018-04-06T00:22:50.950Z,99393.73
2018-04-06T00:25:18.338Z,99386.39
2018-04-06T00:27:45.738Z,99385.77
2018-04-06T00:30:13.131Z,99385.20
2018-04-06T00:32:40.534Z,99390.06
2018-04-06T00:35:07.944Z,99386.69
2018-04-06T00:37:35.316Z,99382.98
2018-04-06T00:40:02.714Z,99385.70
2018-04-06T00:42:30.120Z,99383.37
2018-04-06T00:44:57.494Z,99379.70
2018-04-06T00:47:24.882Z,99380.89
2018-04-06T00:49:52.295Z,99376.20
2018-04-06T00:52:19.746Z,99381.16
2018-04-06T00:54:47.155Z,99373.23
2018-04-06T00:57:14.535Z,99378.70
2018-04-06T00:59:41.919Z,99389.53
2018-04-06T01:02:09.304Z,99386.94
2018-04-06T01:04:36.699Z,99387.02
2018-04-06T01:07:04.094Z,99384.79
2018-04-06T01:09:31.505Z,99386.97
2018-04-06T01:11:58.877Z,99390.87
2018-04-06T01:14:26.276Z,99384.35
2018-04-06T01:16:53.709Z,99380.66
2018-04-06T01:19:21.128Z,99389.23
2018-04-06T01:21:48.523Z,99387.59
2018-04-06T01:24:15.905Z,99381.23
2018-04-06T01:26:43.329Z,99374.92
2018-04-06T01:29:11.482Z,99383.34
2018-04-06T01:31:38.872Z,99379.47
2018-04-06T01:34:06.258Z,99374.30
2018-04-06T01:36:33.665Z,99374.75
2018-04-06T01:39:01.121Z,99375.23
2018-04-06T01:41:31.219Z,99377.53
2018-04-06T01:43:58.741Z,99375.92
2018-04-06T01:46:26.115Z,99377.95
2018-04-06T01:48:53.520Z,99378.72
2018-04-06T01:51:20.908Z,99376.95
2018-04-06T01:53:48.332Z,99373.58
2018-04-06T01:56:15.731Z,99382.20
2018-04-06T01:58:43.112Z,99382.36
2018-04-06T02:01:10.515Z,99382.53
2018-04-06T02:03:37.905Z,99381.55
2018-04-06T02:06:05.314Z,99373.14
2018-04-06T02:08:32.738Z,99369.19
2018-04-06T02:11:00.130Z,99373.09
2018-04-06T02:13:27.506Z,99377.38
2018-04-06T02:15:54.983Z,99374.11
2018-04-06T02:18:22.411Z,99363.45
2018-04-06T02:20:49.791Z,99368.95
2018-04-06T02:23:17.198Z,99381.30
2018-04-06T02:25:44.670Z,99385.44
2018-04-06T02:28:12.095Z,99382.84
2018-04-06T02:30:39.498Z,99376.45
2018-04-06T02:33:06.879Z,99380.98
2018-04-06T02:35:34.309Z,99390.91
2018-04-06T02:38:01.680Z,99390.47
2018-04-06T02:40:29.103Z,99387.67
2018-04-06T02:42:56.558Z,99381.76
2018-04-06T02:45:23.950Z,99383.68
2018-04-06T02:47:51.341Z,99387.56
2018-04-06T02:50:18.751Z,99383.89
2018-04-06T02:52:46.137Z,99376.97
2018-04-06T02:55:13.520Z,99370.39
2018-04-06T02:57:40.918Z,99369.16
2018-04-06T03:00:08.305Z,99374.55
2018-04-06T03:02:35.702Z,99373.22
2018-04-06T03:05:03.086Z,99369.90
2018-04-06T03:07:30.476Z,99368.00
2018-04-06T03:09:57.861Z,99368.08
2018-04-06T03:12:25.262Z,99367.83
2018-04-06T03:14:52.656Z,99367.30
2018-04-06T03:17:20.075Z,99361.94
2018-04-06T03:19:47.522Z,99358.80
2018-04-06T03:22:15.918Z,99358.22
2018-04-06T03:24:43.339Z,99361.30
2018-04-06T03:27:10.810Z,99363.47
2018-04-06T03:29:38.188Z,99370.84
2018-04-06T03:32:05.591Z,99373.09
2018-04-06T03:34:32.979Z,99368.56
2018-04-06T03:37:00.365Z,99367.98
2018-04-06T03:39:27.789Z,99372.61
2018-04-06T03:41:55.215Z,99378.56
2018-04-06T03:44:22.627Z,99372.42
2018-04-06T03:46:50.006Z,99372.45
2018-04-06T03:49:17.387Z,99375.25
2018-04-06T03:51:44.789Z,99377.20
2018-04-06T03:54:12.239Z,99368.83
2018-04-06T03:56:39.617Z,99356.81
2018-04-06T03:59:07.023Z,99358.24
2018-04-06T04:01:34.422Z,99362.41
2018-04-06T04:04:02.073Z,99358.34
2018-04-06T04:06:29.485Z,99354.79
2018-04-06T04:08:56.895Z,99356.04
2018-04-06T04:11:24.262Z,99370.79
2018-04-06T04:13:51.872Z,99362.83
2018-04-06T04:16:19.588Z,99364.99
2018-04-06T04:18:46.991Z,99361.20
2018-04-06T04:21:14.381Z,99366.97
2018-04-06T04:23:41.832Z,99354.05
2018-04-06T04:26:09.206Z,99352.42
2018-04-06T04:28:36.660Z,99349.19
2018-04-06T04:31:04.037Z,99351.82
2018-04-06T04:33:31.448Z,99353.71
2018-04-06T04:35:58.825Z,99353.86
2018-04-06T04:38:26.267Z,99353.19
2018-04-06T04:40:53.642Z,99352.34
2018-04-06T04:43:21.089Z,99348.65
2018-04-06T04:45:49.275Z,99349.41
2018-04-06T04:48:16.660Z,99351.34
2018-04-06T04:50:44.055Z,99352.70
2018-04-06T04:53:11.535Z,99341.88
2018-04-06T04:55:38.986Z,99337.20
2018-04-06T04:58:06.431Z,99338.72
2018-04-06T05:00:33.898Z,99339.27
2018-04-06T05:03:01.356Z,99338.15
2018-04-06T05:05:28.738Z,99338.37
2018-04-06T05:07:56.127Z,99336.59
2018-04-06T05:10:24.526Z,99339.41
2018-04-06T05:12:51.923Z,99343.21
2018-04-06T05:15:19.324Z,99337.52
2018-04-06T05:17:46.717Z,99341.31
2018-04-06T05:20:14.103Z,99346.80
2018-04-06T05:22:41.492Z,99347.59
2018-04-06T05:25:08.899Z,99353.77
2018-04-06T05:27:36.338Z,99341.67
2018-04-06T05:30:03.730Z,99345.92
2018-04-06T05:32:31.162Z,99344.69
2018-04-06T05:34:58.611Z,99349.92
2018-04-06T05:37:26.195Z,99347.04
2018-04-06T05:39:53.562Z,99345.22
2018-04-06T05:42:21.734Z,99349.69
2018-04-06T05:44:49.164Z,99349.27
2018-04-06T05:47:16.534Z,99351.97
2018-04-06T05:49:43.973Z,99351.34
2018-04-06T05:52:11.605Z,99345.52
2018-04-06T05:54:38.997Z,99341.55
2018-04-06T05:57:06.395Z,99337.46
2018-04-06T05:59:33.829Z,99335.44
2018-04-06T06:02:01.272Z,99345.52
2018-04-06T06:04:28.662Z,99346.48
2018-04-06T06:06:56.058Z,99337.68
2018-04-06T06:09:23.478Z,99339.05
2018-04-06T06:11:50.899Z,99342.56
2018-04-06T06:14:18.290Z,99338.56
2018-04-06T06:16:45.691Z,99338.22
2018-04-06T06:19:13.130Z,99340.33
2018-04-06T06:21:40.555Z,99342.56
2018-04-06T06:24:07.943Z,99335.78
2018-04-06T06:26:35.354Z,99345.34
2018-04-06T06:29:02.835Z,99342.27
2018-04-06T06:31:30.247Z,99346.18
2018-04-06T06:33:57.636Z,99346.02
2018-04-06T06:36:25.066Z,99347.34
2018-04-06T06:38:52.454Z,99346.31
2018-04-06T06:41:19.862Z,99350.62
2018-04-06T06:43:47.255Z,99354.84
2018-04-06T06:46:14.658Z,99345.50
2018-04-06T06:48:42.054Z,99347.19
2018-04-06T06:51:09.459Z,99356.15
2018-04-06T06:53:36.872Z,99351.70
2018-04-06T06:56:04.305Z,99341.24
2018-04-06T06:58:31.713Z,99349.16
2018-04-06T07:00:59.132Z,99350.23
2018-04-06T07:03:26.504Z,99342.30
2018-04-06T07:05:53.955Z,99344.55
2018-04-06T07:08:21.406Z,99342.75
2018-04-06T07:10:49.150Z,99339.88
2018-04-06T07:13:16.585Z,99337.91
2018-04-06T07:15:44.099Z,99332.48
2018-04-06T07:18:11.490Z,99331.08
2018-04-06T07:20:38.958Z,99343.07
2018-04-06T07:23:06.388Z,99327.28
2018-04-06T07:25:33.947Z,99328.77
2018-04-06T07:28:01.331Z,99328.59
2018-04-06T07:30:28.722Z,99336.42
2018-04-06T07:32:56.139Z,99326.14
2018-04-06T07:35:23.595Z,99325.38
2018-04-06T07:37:51.042Z,99325.63
2018-04-06T07:40:18.458Z,99324.19
2018-04-06T07:42:45.877Z,99321.50
2018-04-06T07:45:13.261Z,99319.17
2018-04-06T07:47:40.823Z,99314.63
2018-04-06T07:50:08.292Z,99314.20
2018-04-06T07:52:35.740Z,99309.36
2018-04-06T07:55:03.125Z,99305.30
2018-04-06T07:57:30.565Z,99305.28
2018-04-06T07:59:58.020Z,99301.58
2018-04-06T08:02:25.466Z,99301.17
2018-04-06T08:04:52.857Z,99296.17
2018-04-06T08:07:20.292Z,99298.25
2018-04-06T08:09:47.684Z,99287.76
2018-04-06T08:12:15.087Z,99283.08
2018-04-06T08:14:42.474Z,99278.50
2018-04-06T08:17:09.886Z,99280.97
2018-04-06T08:19:37.277Z,99273.12
2018-04-06T08:22:04.791Z,99275.41
2018-04-06T08:24:32.297Z,99273.11
2018-04-06T08:26:59.770Z,99281.07
2018-04-06T08:29:27.512Z,99264.95
2018-04-06T08:31:54.970Z,99261.02
2018-04-06T08:34:22.364Z,99257.20
2018-04-06T08:36:49.887Z,99264.61
2018-04-06T08:39:17.328Z,99262.50
2018-04-06T08:41:44.810Z,99260.84
2018-04-06T08:44:12.266Z,99248.88
2018-04-06T08:46:39.716Z,99241.19
2018-04-06T08:49:07.167Z,99239.03
2018-04-06T08:51:34.691Z,99234.85
2018-04-06T08:54:02.106Z,99237.73
2018-04-06T08:56:29.538Z,99233.28
2018-04-06T08:58:57.987Z,99238.98
2018-04-06T09:01:25.388Z,99231.59
2018-04-06T09:03:52.855Z,99225.13
2018-04-06T09:06:20.312Z,99226.28
2018-04-06T09:08:47.769Z,99218.54
2018-04-06T09:11:15.206Z,99226.34
2018-04-06T09:13:42.684Z,99223.09
2018-04-06T09:16:10.205Z,99217.45
2018-04-06T09:18:37.599Z,99214.58
2018-04-06T09:21:05.058Z,99214.21
2018-04-06T09:23:32.511Z,99210.69
2018-04-06T09:26:00.058Z,99209.54
2018-04-06T09:28:27.525Z,99209.67
2018-04-06T09:30:54.975Z,99212.72
2018-04-06T09:33:22.343Z,99210.55
2018-04-06T09:35:49.774Z,99197.54
2018-04-06T09:38:17.159Z,99196.81
2018-04-06T09:40:44.542Z,99192.64
2018-04-06T09:43:11.937Z,99195.99
2018-04-06T09:45:39.422Z,99189.20
2018-04-06T09:48:06.881Z,99189.88
2018-04-06T09:50:34.348Z,99182.41
2018-04-06T09:53:01.788Z,99179.06
2018-04-06T09:55:29.747Z,99175.42
2018-04-06T09:57:57.229Z,99176.52
2018-04-06T10:00:30.312Z,99170.03
2018-04-06T10:02:57.785Z,99156.33
2018-04-06T10:05:25.229Z,99165.30
2018-04-06T10:07:52.688Z,99157.93
2018-04-06T10:10:20.073Z,99151.34
2018-04-06T10:12:47.479Z,99147.22
2018-04-06T10:15:14.870Z,99138.98
2018-04-06T10:17:42.286Z,99135.16
2018-04-06T10:20:09.683Z,99134.21
2018-04-06T10:22:37.066Z,99127.77
2018-04-06T10:25:04.471Z,99120.21
2018-04-06T10:27:31.867Z,99116.30
2018-04-06T10:29:59.267Z,99119.78
2018-04-06T10:32:26.657Z,99120.56
2018-04-06T10:34:54.039Z,99116.70
2018-04-06T10:37:21.443Z,99108.77
2018-04-06T10:39:48.832Z,99108.56
2018-04-06T10:42:16.238Z,99104.52
2018-04-06T10:44:43.636Z,99105.84
2018-04-06T10:47:11.031Z,99098.99
2018-04-06T10:49:38.754Z,99095.64
2018-04-06T10:52:06.142Z,99087.72
2018-04-06T10:54:33.522Z,99094.62
2018-04-06T10:57:01.472Z,99090.39
2018-04-06T10:59:28.870Z,99089.74
2018-04-06T11:01:56.254Z,99087.84
2018-04-06T11:04:23.635Z,99083.69
2018-04-06T11:06:51.039Z,99078.83
2018-04-06T11:09:18.426Z,99073.28
2018-04-06T11:11:45.825Z,99062.15
2018-04-06T11:14:13.202Z,99062.06
2018-04-06T11:16:40.601Z,99071.09
2018-04-06T11:19:07.991Z,99063.17
2018-04-06T11:21:35.402Z,99061.44
2018-04-06T11:24:02.783Z,99063.03
2018-04-06T11:26:30.189Z,99057.61
2018-04-06T11:28:57.581Z,99056.69
2018-04-06T11:31:25.022Z,99062.68
2018-04-06T11:33:52.404Z,99055.50
2018-04-06T11:36:19.798Z,99052.27
2018-04-06T11:38:47.207Z,99047.92
2018-04-06T11:41:14.600Z,99052.59
2018-04-06T11:43:42.010Z,99043.33
2018-04-06T11:46:09.410Z,99042.22
2018-04-06T11:48:36.797Z,99040.41
2018-04-06T11:51:04.183Z,99025.19
2018-04-06T11:53:31.602Z,99028.51
2018-04-06T11:55:58.973Z,99023.99
2018-04-06T11:58:26.385Z,99020.15
2018-04-06T12:00:53.783Z,99020.19
2018-04-06T12:03:21.182Z,99013.56
2018-04-06T12:05:48.598Z,99017.70
2018-04-06T12:08:15.981Z,99001.00
2018-04-06T12:10:43.362Z,99004.07
2018-04-06T12:13:10.766Z,99005.36
2018-04-06T12:15:38.152Z,99002.72
2018-04-06T12:18:05.586Z,98998.61
2018-04-06T12:20:33.993Z,98987.47
2018-04-06T12:23:02.336Z,98972.42
2018-04-06T12:25:29.717Z,98976.26
2018-04-06T12:27:57.511Z,98979.42
2018-04-06T12:30:24.890Z,98971.72
2018-04-06T12:32:52.297Z,98972.20
2018-04-06T12:35:19.681Z,98963.27
2018-04-06T12:37:47.069Z,98952.34
2018-04-06T12:40:14.460Z,98951.89
2018-04-06T12:42:41.854Z,98945.69
2018-04-06T12:45:09.238Z,98962.91
2018-04-06T12:47:36.636Z,98954.72
2018-04-06T12:50:05.472Z,98942.37
2018-04-06T12:52:32.842Z,98951.16
2018-04-06T12:55:00.238Z,98942.63
2018-04-06T12:57:27.644Z,98941.67
2018-04-06T12:59:55.046Z,98935.84
2018-04-06T13:02:22.427Z,98938.45
2018-04-06T13:04:49.853Z,98937.61
2018-04-06T13:07:17.222Z,98941.78
2018-04-06T13:09:44.647Z,98928.33
2018-04-06T13:12:12.040Z,98927.52
2018-04-06T13:14:39.451Z,98922.72
2018-04-06T13:17:06.844Z,98925.42
2018-04-06T13:19:34.264Z,98920.54
2018-04-06T13:22:01.652Z,98915.55
2018-04-06T13:24:29.063Z,98906.08
2018-04-06T13:26:56.467Z,98906.67
2018-04-06T13:29:23.870Z,98899.61
2018-04-06T13:31:51.275Z,98894.02
2018-04-06T13:34:18.675Z,98896.98
2018-04-06T13:36:46.070Z,98898.80
2018-04-06T13:39:13.467Z,98901.86
2018-04-06T13:41:40.856Z,98898.72
2018-04-06T13:44:08.264Z,98884.08
2018-04-06T13:46:35.667Z,98885.16
2018-04-06T13:49:03.070Z,98883.42
2018-04-06T13:51:30.447Z,98875.89
2018-04-06T13:53:57.854Z,98875.85
2018-04-06T13:56:25.248Z,98876.72
2018-04-06T13:58:52.636Z,98874.05
2018-04-06T14:01:20.079Z,98863.31
2018-04-06T14:03:47.433Z,98860.27
2018-04-06T14:06:14.950Z,98860.14
2018-04-06T14:08:42.345Z,98851.65
2018-04-06T14:11:09.733Z,98846.73
2018-04-06T14:13:37.764Z,98851.27
2018-04-06T14:16:05.208Z,98838.88
2018-04-06T14:18:32.577Z,98848.44
2018-04-06T14:20:59.983Z,98845.98
2018-04-06T14:26:01.054Z,98834.31
2018-04-06T14:28:28.443Z,98829.39
2018-04-06T14:30:55.846Z,98835.22
2018-04-06T14:33:23.229Z,98825.73
2018-04-06T14:35:50.626Z,98824.06
2018-04-06T14:38:18.025Z,98824.05
2018-04-06T14:40:45.431Z,98819.80
2018-04-06T14:43:12.815Z,98814.14
2018-04-06T14:45:40.224Z,98821.00
2018-04-06T14:48:07.603Z,98815.30
2018-04-06T14:50:35.014Z,98811.95
2018-04-06T14:53:02.407Z,98809.69
2018-04-06T14:55:29.793Z,98814.17
2018-04-06T14:57:57.201Z,98805.59
2018-04-06T15:00:24.598Z,98806.36
2018-04-06T15:02:51.987Z,98808.70
2018-04-06T15:05:19.383Z,98808.89
2018-04-06T15:07:46.769Z,98808.77
2018-04-06T15:10:14.161Z,98803.91
2018-04-06T15:12:41.555Z,98800.28
2018-04-06T15:15:09.918Z,98799.47
2018-04-06T15:17:37.378Z,98800.02
2018-04-06T15:20:04.859Z,98783.66
2018-04-06T15:22:32.296Z,98793.14
2018-04-06T15:24:59.754Z,98784.84
2018-04-06T15:27:27.202Z,98787.27
2018-04-06T15:29:54.591Z,98786.31
2018-04-06T15:32:21.995Z,98783.89
2018-04-06T15:34:49.393Z,98782.84
2018-04-06T15:37:16.787Z,98783.84
2018-04-06T15:39:44.183Z,98781.63
2018-04-06T15:42:11.651Z,98777.12
2018-04-06T15:44:39.124Z,98782.94
2018-04-06T15:47:06.556Z,98780.86
2018-04-06T15:49:34.054Z,98768.31
2018-04-06T15:52:01.494Z,98773.45
2018-04-06T15:54:28.867Z,98769.70
2018-04-06T15:56:56.317Z,98764.57
2018-04-06T15:59:23.683Z,98769.34
2018-04-06T16:01:51.110Z,98768.49
2018-04-06T16:04:18.494Z,98770.28
2018-04-06T16:06:45.888Z,98762.13
2018-04-06T16:09:13.306Z,98753.62
2018-04-06T16:11:40.748Z,98758.19
2018-04-06T16:14:08.131Z,98758.72
2018-04-06T16:16:35.865Z,98755.81
2018-04-06T16:19:03.355Z,98748.50
2018-04-06T16:21:30.757Z,98746.30
2018-04-06T16:23:58.208Z,98748.06
2018-04-06T16:26:25.597Z,98743.39
2018-04-06T16:28:53.110Z,98739.27
2018-04-06T16:31:20.501Z,98740.66
2018-04-06T16:33:47.895Z,98743.19
2018-04-06T16:36:15.296Z,98736.14
2018-04-06T16:38:43.440Z,98736.66
2018-04-06T16:41:10.825Z,98737.63
2018-04-06T16:43:38.234Z,98732.74
2018-04-06T16:46:05.693Z,98741.80
2018-04-06T16:48:33.721Z,98740.83
2018-04-06T16:51:02.006Z,98745.46
2018-04-06T16:53:29.435Z,98737.67
2018-04-06T16:56:01.093Z,98742.91
2018-04-06T16:58:28.492Z,98735.92
2018-04-06T17:00:55.918Z,98731.81
2018-04-06T17:03:23.367Z,98731.00
2018-04-06T17:05:50.772Z,98733.17
2018-04-06T17:08:18.186Z,98733.05
2018-04-06T17:10:45.573Z,98738.84
2018-04-06T17:13:13.028Z,98736.52
2018-04-06T17:15:40.386Z,98736.22
2018-04-06T17:18:07.774Z,98736.08
2018-04-06T17:20:35.182Z,98741.97
2018-04-06T17:23:02.567Z,98742.92
2018-04-06T17:25:30.054Z,98741.73
2018-04-06T17:27:57.379Z,98742.20
2018-04-06T17:30:24.828Z,98738.44
2018-04-06T17:32:52.287Z,98741.05
2018-04-06T17:35:19.674Z,98732.83
2018-04-06T17:37:47.072Z,98738.42
2018-04-06T17:40:14.658Z,98736.52
2018-04-06T17:42:42.041Z,98743.37
2018-04-06T17:45:09.456Z,98738.27
2018-04-06T17:47:36.868Z,98740.28
2018-04-06T17:50:04.280Z,98739.25
2018-04-06T17:52:31.657Z,98733.91
2018-04-06T17:54:59.118Z,98742.53
2018-04-06T17:57:26.545Z,98743.73
2018-04-06T17:59:55.954Z,98746.25
2018-04-06T18:02:23.323Z,98744.26
2018-04-06T18:04:50.759Z,98749.97
2018-04-06T18:07:18.216Z,98749.19
2018-04-06T18:09:46.909Z,98743.68
2018-04-06T18:12:14.358Z,98748.56
2018-04-06T18:14:41.822Z,98746.42
2018-04-06T18:17:09.209Z,98746.97
2018-04-06T18:19:36.694Z,98756.08
2018-04-06T18:22:04.208Z,98754.55
2018-04-06T18:24:32.714Z,98752.74
2018-04-06T18:27:00.116Z,98751.28
2018-04-06T18:29:27.503Z,98755.73
2018-04-06T18:31:55.147Z,98756.08
2018-04-06T18:34:22.536Z,98748.03
2018-04-06T18:36:49.975Z,98751.34
2018-04-06T18:39:18.196Z,98752.62
2018-04-06T18:41:45.612Z,98753.70
2018-04-06T18:44:13.168Z,98756.91
2018-04-06T18:46:40.621Z,98763.12
2018-04-06T18:49:08.063Z,98766.05
2018-04-06T18:51:35.530Z,98757.15
2018-04-06T18:54:02.915Z,98761.78
2018-04-06T18:56:35.078Z,98754.98
2018-04-06T18:59:02.799Z,98760.23
2018-04-06T19:01:30.254Z,98758.30
2018-04-06T19:03:57.671Z,98755.44
2018-04-06T19:06:25.070Z,98755.69
2018-04-06T19:08:52.458Z,98756.39
2018-04-06T19:11:19.882Z,98754.73
2018-04-06T19:13:47.289Z,98758.64
2018-04-06T19:16:14.738Z,98756.72
2018-04-06T19:18:42.122Z,98757.95
2018-04-06T19:21:09.745Z,98760.17
2018-04-06T19:23:37.139Z,98756.08
2018-04-06T19:26:04.558Z,98758.52
2018-04-06T19:28:32.020Z,98756.26
2018-04-06T19:34:13.494Z,98754.88
2018-04-06T19:36:41.191Z,98757.06
2018-04-06T19:39:09.164Z,98753.49
2018-04-06T19:41:36.704Z,98756.40
2018-04-06T19:44:04.295Z,98755.46
2018-04-06T19:46:32.253Z,98759.50
2018-04-06T19:48:59.704Z,98755.79
2018-04-06T19:51:27.143Z,98752.87
2018-04-06T19:53:54.935Z,98752.37
2018-04-06T19:56:22.692Z,98757.36
2018-04-06T20:01:52.519Z,98746.22
2018-04-06T20:04:20.029Z,98748.09
2018-04-06T20:06:47.492Z,98749.30
2018-04-06T20:09:14.994Z,98747.27
2018-04-06T20:11:43.385Z,98756.42
2018-04-06T20:14:15.132Z,98760.59
2018-04-06T20:16:42.591Z,98757.78
2018-04-06T20:19:10.341Z,98755.09
2018-04-06T20:24:40.329Z,98755.47
2018-04-06T20:41:30.111Z,98754.80
2018-04-06T20:43:57.752Z,98747.17
2018-04-06T20:46:25.473Z,98749.38
2018-04-06T20:48:54.115Z,98746.03
2018-04-06T20:51:25.790Z,98738.33
2018-04-06T20:53:54.158Z,98733.19
2018-04-06T20:56:21.597Z,98729.30
2018-04-06T20:58:49.036Z,98726.52
2018-04-06T21:01:16.514Z,98722.23
2018-04-06T21:03:43.956Z,98727.22
2018-04-06T21:06:11.336Z,98722.98
2018-04-06T21:08:38.724Z,98722.43
2018-04-06T21:11:06.118Z,98728.56
2018-04-06T21:13:33.510Z,98727.75
2018-04-06T21:16:00.898Z,98724.92
2018-04-06T21:18:28.289Z,98719.38
2018-04-06T21:20:55.680Z,98716.53
2018-04-06T21:23:23.091Z,98716.94
2018-04-06T21:25:50.483Z,98716.48
2018-04-06T21:28:17.879Z,98718.13
2018-04-06T21:30:45.281Z,98720.44
2018-04-06T21:33:12.670Z,98717.05
2018-04-06T21:35:40.070Z,98712.41
2018-04-06T21:38:07.487Z,98712.39
2018-04-06T21:40:34.886Z,98705.70
2018-04-06T21:43:02.317Z,98702.75
2018-04-06T21:45:29.718Z,98706.22
2018-04-06T21:47:57.117Z,98702.67
2018-04-06T21:50:24.532Z,98702.16
2018-04-06T21:52:51.929Z,98700.56
2018-04-06T21:55:19.329Z,98699.12
2018-04-06T21:57:46.718Z,98703.27
2018-04-06T22:02:38.412Z,98689.13
2018-04-06T22:05:05.837Z,98685.61
2018-04-06T22:07:33.225Z,98679.52
2018-04-06T22:10:00.633Z,98683.41
2018-04-06T22:12:28.030Z,98673.94
2018-04-06T22:14:56.482Z,98677.79
2018-04-06T22:17:23.889Z,98682.69
2018-04-06T22:19:51.282Z,98674.69
2018-04-06T22:22:18.803Z,98674.20
2018-04-06T22:24:46.199Z,98679.05
2018-04-06T22:27:13.593Z,98677.68
2018-04-06T22:29:41.007Z,98674.78
2018-04-06T22:32:08.397Z,98673.91
2018-04-06T22:34:35.795Z,98662.37
2018-04-06T22:37:03.178Z,98662.53
2018-04-06T22:39:30.596Z,98655.58
2018-04-06T22:41:57.981Z,98662.81
2018-04-06T22:44:25.422Z,98663.70
2018-04-06T22:46:52.806Z,98662.15
2018-04-06T22:49:20.201Z,98663.86
2018-04-06T22:51:47.605Z,98667.58
2018-04-06T22:54:15.014Z,98662.09
2018-04-06T22:56:42.418Z,98663.98
2018-04-06T22:59:09.818Z,98665.84
2018-04-06T23:01:37.216Z,98661.20
2018-04-06T23:04:04.592Z,98661.58
2018-04-06T23:06:32.012Z,98663.86
2018-04-06T23:08:59.401Z,98662.84
2018-04-06T23:11:27.790Z,98658.49
2018-04-06T23:13:55.166Z,98659.91
2018-04-06T23:16:22.593Z,98661.30
2018-04-06T23:18:49.966Z,98653.29
2018-04-06T23:21:17.389Z,98659.53
2018-04-06T23:23:44.779Z,98655.99
2018-04-06T23:26:12.197Z,98650.88
2018-04-06T23:28:39.582Z,98655.19
2018-04-06T23:31:06.989Z,98642.98
2018-04-06T23:33:34.386Z,98642.53
2018-04-06T23:36:01.802Z,98643.34
2018-04-06T23:38:29.192Z,98643.75
2018-04-06T23:40:56.580Z,98640.02
2018-04-06T23:43:23.971Z,98642.59
2018-04-06T23:45:51.370Z,98640.34
2018-04-06T23:48:18.777Z,98638.20
2018-04-06T23:50:46.186Z,98636.54
2018-04-06T23:53:13.575Z,98632.70
2018-04-06T23:55:40.982Z,98628.08
2018-04-06T23:58:08.362Z,98627.13
